sensor_id;sensor_type;location;lat;lon;timestamp;temperature;humidity
43647;DHT22;56152;49.996;18.980;2022-08-19T00:02:33;21.70;81.40
43647;DHT22;56152;49.996;18.980;2022-08-19T00:07:37;21.70;81.30
43647;DHT22;56152;49.996;18.980;2022-08-19T00:12:45;21.60;81.50
43647;DHT22;56152;49.996;18.980;2022-08-19T00:17:49;21.50;81.70
43647;DHT22;56152;49.996;18.980;2022-08-19T00:22:54;21.40;82.40
43647;DHT22;56152;49.996;18.980;2022-08-19T00:27:56;21.40;82.90
43647;DHT22;56152;49.996;18.980;2022-08-19T00:32:59;21.40;83.00
43647;DHT22;56152;49.996;18.980;2022-08-19T00:38:04;21.30;83.20
43647;DHT22;56152;49.996;18.980;2022-08-19T00:43:11;21.20;83.70
43647;DHT22;56152;49.996;18.980;2022-08-19T00:48:13;21.20;84.00
43647;DHT22;56152;49.996;18.980;2022-08-19T00:53:21;21.20;84.00
43647;DHT22;56152;49.996;18.980;2022-08-19T00:58:28;21.20;84.20
43647;DHT22;56152;49.996;18.980;2022-08-19T01:03:31;21.10;84.40
43647;DHT22;56152;49.996;18.980;2022-08-19T01:08:36;21.10;84.60
43647;DHT22;56152;49.996;18.980;2022-08-19T01:13:38;21.00;84.90
43647;DHT22;56152;49.996;18.980;2022-08-19T01:18:42;20.90;85.20
43647;DHT22;56152;49.996;18.980;2022-08-19T01:23:46;20.90;85.40
43647;DHT22;56152;49.996;18.980;2022-08-19T01:28:51;20.90;85.40
43647;DHT22;56152;49.996;18.980;2022-08-19T01:33:56;20.80;85.50
43647;DHT22;56152;49.996;18.980;2022-08-19T01:39:03;20.70;85.90
43647;DHT22;56152;49.996;18.980;2022-08-19T01:44:09;20.70;86.20
43647;DHT22;56152;49.996;18.980;2022-08-19T01:49:13;20.60;86.40
43647;DHT22;56152;49.996;18.980;2022-08-19T01:54:19;20.70;86.50
43647;DHT22;56152;49.996;18.980;2022-08-19T01:59:23;20.60;86.70
43647;DHT22;56152;49.996;18.980;2022-08-19T02:04:29;20.50;86.90
43647;DHT22;56152;49.996;18.980;2022-08-19T02:09:35;20.50;87.20
43647;DHT22;56152;49.996;18.980;2022-08-19T02:14:37;20.50;87.30
43647;DHT22;56152;49.996;18.980;2022-08-19T02:19:38;20.50;87.30
43647;DHT22;56152;49.996;18.980;2022-08-19T02:24:44;20.40;87.30
43647;DHT22;56152;49.996;18.980;2022-08-19T02:29:47;20.30;87.90
43647;DHT22;56152;49.996;18.980;2022-08-19T02:34:50;20.30;88.10
43647;DHT22;56152;49.996;18.980;2022-08-19T02:39:54;20.20;88.30
43647;DHT22;56152;49.996;18.980;2022-08-19T02:44:56;20.10;88.40
43647;DHT22;56152;49.996;18.980;2022-08-19T02:49:59;20.10;88.90
43647;DHT22;56152;49.996;18.980;2022-08-19T02:55:05;20.00;89.20
43647;DHT22;56152;49.996;18.980;2022-08-19T03:00:08;20.00;89.30
43647;DHT22;56152;49.996;18.980;2022-08-19T03:05:12;20.00;89.50
43647;DHT22;56152;49.996;18.980;2022-08-19T03:10:17;20.00;89.70
43647;DHT22;56152;49.996;18.980;2022-08-19T03:15:19;19.90;89.90
43647;DHT22;56152;49.996;18.980;2022-08-19T03:20:23;19.90;90.00
43647;DHT22;56152;49.996;18.980;2022-08-19T03:25:28;19.90;90.10
43647;DHT22;56152;49.996;18.980;2022-08-19T03:30:30;19.80;90.10
43647;DHT22;56152;49.996;18.980;2022-08-19T03:35:33;19.90;90.10
43647;DHT22;56152;49.996;18.980;2022-08-19T03:40:38;19.90;90.10
43647;DHT22;56152;49.996;18.980;2022-08-19T03:45:40;19.90;90.30
43647;DHT22;56152;49.996;18.980;2022-08-19T03:50:44;19.80;90.40
43647;DHT22;56152;49.996;18.980;2022-08-19T03:55:49;19.80;90.50
43647;DHT22;56152;49.996;18.980;2022-08-19T04:00:54;19.80;90.50
43647;DHT22;56152;49.996;18.980;2022-08-19T04:05:56;19.80;90.40
43647;DHT22;56152;49.996;18.980;2022-08-19T04:11:06;19.80;90.40
43647;DHT22;56152;49.996;18.980;2022-08-19T04:16:11;19.80;90.50
43647;DHT22;56152;49.996;18.980;2022-08-19T04:21:16;19.80;90.50
43647;DHT22;56152;49.996;18.980;2022-08-19T04:26:25;19.80;90.70
43647;DHT22;56152;49.996;18.980;2022-08-19T04:31:30;19.80;90.80
43647;DHT22;56152;49.996;18.980;2022-08-19T04:36:37;19.90;90.70
43647;DHT22;56152;49.996;18.980;2022-08-19T04:41:43;20.20;90.50
43647;DHT22;56152;49.996;18.980;2022-08-19T04:47:03;20.30;90.50
43647;DHT22;56152;49.996;18.980;2022-08-19T04:52:07;20.40;90.30
43647;DHT22;56152;49.996;18.980;2022-08-19T04:57:11;20.50;90.10
43647;DHT22;56152;49.996;18.980;2022-08-19T05:02:13;20.60;90.10
43647;DHT22;56152;49.996;18.980;2022-08-19T05:07:19;20.60;90.20
43647;DHT22;56152;49.996;18.980;2022-08-19T05:12:23;20.70;90.10
43647;DHT22;56152;49.996;18.980;2022-08-19T05:17:25;20.80;90.00
43647;DHT22;56152;49.996;18.980;2022-08-19T05:22:28;20.90;90.00
43647;DHT22;56152;49.996;18.980;2022-08-19T05:27:37;20.90;89.70
43647;DHT22;56152;49.996;18.980;2022-08-19T05:32:40;21.00;89.60
43647;DHT22;56152;49.996;18.980;2022-08-19T05:37:46;21.10;89.70
43647;DHT22;56152;49.996;18.980;2022-08-19T05:42:49;21.10;89.70
43647;DHT22;56152;49.996;18.980;2022-08-19T05:47:52;21.20;89.60
43647;DHT22;56152;49.996;18.980;2022-08-19T05:52:57;21.30;89.40
43647;DHT22;56152;49.996;18.980;2022-08-19T05:58:01;21.50;89.10
43647;DHT22;56152;49.996;18.980;2022-08-19T06:03:10;21.70;88.40
43647;DHT22;56152;49.996;18.980;2022-08-19T06:08:14;22.10;88.10
43647;DHT22;56152;49.996;18.980;2022-08-19T06:13:20;22.60;87.00
43647;DHT22;56152;49.996;18.980;2022-08-19T06:18:26;23.00;85.70
43647;DHT22;56152;49.996;18.980;2022-08-19T06:23:28;23.30;84.90
43647;DHT22;56152;49.996;18.980;2022-08-19T06:28:33;23.40;84.40
43647;DHT22;56152;49.996;18.980;2022-08-19T06:33:36;23.70;84.00
43647;DHT22;56152;49.996;18.980;2022-08-19T06:38:39;23.80;83.50
43647;DHT22;56152;49.996;18.980;2022-08-19T06:43:44;24.00;83.10
43647;DHT22;56152;49.996;18.980;2022-08-19T06:48:50;24.20;82.80
43647;DHT22;56152;49.996;18.980;2022-08-19T06:53:54;24.40;82.10
43647;DHT22;56152;49.996;18.980;2022-08-19T06:59:15;24.40;82.00
43647;DHT22;56152;49.996;18.980;2022-08-19T07:04:29;24.60;81.70
43647;DHT22;56152;49.996;18.980;2022-08-19T07:09:32;24.90;81.00
43647;DHT22;56152;49.996;18.980;2022-08-19T07:14:36;25.30;80.20
43647;DHT22;56152;49.996;18.980;2022-08-19T07:19:42;25.50;79.50
43647;DHT22;56152;49.996;18.980;2022-08-19T07:24:44;25.50;79.40
43647;DHT22;56152;49.996;18.980;2022-08-19T07:29:48;25.70;79.30
43647;DHT22;56152;49.996;18.980;2022-08-19T07:34:50;25.80;79.10
43647;DHT22;56152;49.996;18.980;2022-08-19T07:39:53;26.00;78.10
43647;DHT22;56152;49.996;18.980;2022-08-19T07:44:58;26.30;77.80
43647;DHT22;56152;49.996;18.980;2022-08-19T07:50:00;26.50;77.40
43647;DHT22;56152;49.996;18.980;2022-08-19T07:55:06;26.60;77.00
43647;DHT22;56152;49.996;18.980;2022-08-19T08:00:12;26.70;76.30
43647;DHT22;56152;49.996;18.980;2022-08-19T08:05:14;26.90;76.30
43647;DHT22;56152;49.996;18.980;2022-08-19T08:10:35;27.10;75.60
43647;DHT22;56152;49.996;18.980;2022-08-19T08:15:39;27.10;75.60
43647;DHT22;56152;49.996;18.980;2022-08-19T08:20:41;27.20;74.40
43647;DHT22;56152;49.996;18.980;2022-08-19T08:25:54;27.20;74.20
43647;DHT22;56152;49.996;18.980;2022-08-19T08:31:01;27.40;73.50
43647;DHT22;56152;49.996;18.980;2022-08-19T08:36:06;27.60;72.50
43647;DHT22;56152;49.996;18.980;2022-08-19T08:41:18;27.70;71.60
43647;DHT22;56152;49.996;18.980;2022-08-19T08:46:30;27.80;70.80
43647;DHT22;56152;49.996;18.980;2022-08-19T08:51:42;27.80;70.10
43647;DHT22;56152;49.996;18.980;2022-08-19T08:56:51;27.80;70.00
43647;DHT22;56152;49.996;18.980;2022-08-19T09:02:01;27.70;69.70
43647;DHT22;56152;49.996;18.980;2022-08-19T09:07:16;27.70;70.10
43647;DHT22;56152;49.996;18.980;2022-08-19T09:12:30;28.00;69.60
43647;DHT22;56152;49.996;18.980;2022-08-19T09:17:36;28.20;69.00
43647;DHT22;56152;49.996;18.980;2022-08-19T09:22:40;28.10;69.20
43647;DHT22;56152;49.996;18.980;2022-08-19T09:27:44;28.10;69.60
43647;DHT22;56152;49.996;18.980;2022-08-19T09:32:59;28.10;69.70
43647;DHT22;56152;49.996;18.980;2022-08-19T09:38:01;28.10;69.40
43647;DHT22;56152;49.996;18.980;2022-08-19T09:43:03;28.20;69.30
43647;DHT22;56152;49.996;18.980;2022-08-19T09:48:07;28.30;69.10
43647;DHT22;56152;49.996;18.980;2022-08-19T09:53:10;28.40;68.90
43647;DHT22;56152;49.996;18.980;2022-08-19T09:58:18;28.50;68.50
43647;DHT22;56152;49.996;18.980;2022-08-19T10:03:36;28.60;68.50
43647;DHT22;56152;49.996;18.980;2022-08-19T10:08:45;28.80;68.40
43647;DHT22;56152;49.996;18.980;2022-08-19T10:13:48;29.50;66.40
43647;DHT22;56152;49.996;18.980;2022-08-19T10:18:53;30.10;64.90
43647;DHT22;56152;49.996;18.980;2022-08-19T10:24:14;30.20;62.70
43647;DHT22;56152;49.996;18.980;2022-08-19T10:29:20;30.10;62.60
43647;DHT22;56152;49.996;18.980;2022-08-19T10:34:24;29.90;62.90
43647;DHT22;56152;49.996;18.980;2022-08-19T10:39:29;29.70;62.10
43647;DHT22;56152;49.996;18.980;2022-08-19T10:44:34;30.00;61.40
43647;DHT22;56152;49.996;18.980;2022-08-19T10:50:00;30.20;60.50
43647;DHT22;56152;49.996;18.980;2022-08-19T10:55:22;30.60;59.00
43647;DHT22;56152;49.996;18.980;2022-08-19T11:00:43;30.90;59.20
43647;DHT22;56152;49.996;18.980;2022-08-19T11:05:56;31.40;58.30
43647;DHT22;56152;49.996;18.980;2022-08-19T11:11:00;31.80;57.10
43647;DHT22;56152;49.996;18.980;2022-08-19T11:16:05;32.00;56.70
43647;DHT22;56152;49.996;18.980;2022-08-19T11:21:18;31.90;56.50
43647;DHT22;56152;49.996;18.980;2022-08-19T11:26:21;32.20;55.70
43647;DHT22;56152;49.996;18.980;2022-08-19T11:31:26;32.30;54.30
43647;DHT22;56152;49.996;18.980;2022-08-19T11:36:40;32.20;55.40
43647;DHT22;56152;49.996;18.980;2022-08-19T11:41:43;32.10;55.40
43647;DHT22;56152;49.996;18.980;2022-08-19T11:46:48;32.10;55.80
43647;DHT22;56152;49.996;18.980;2022-08-19T11:51:55;32.00;55.70
43647;DHT22;56152;49.996;18.980;2022-08-19T11:56:58;32.10;54.40
43647;DHT22;56152;49.996;18.980;2022-08-19T12:02:02;32.10;54.10
43647;DHT22;56152;49.996;18.980;2022-08-19T12:07:06;32.20;54.20
43647;DHT22;56152;49.996;18.980;2022-08-19T12:12:08;32.20;53.00
43647;DHT22;56152;49.996;18.980;2022-08-19T12:17:12;32.10;53.60
43647;DHT22;56152;49.996;18.980;2022-08-19T12:22:17;31.90;54.00
43647;DHT22;56152;49.996;18.980;2022-08-19T12:27:22;31.70;53.70
43647;DHT22;56152;49.996;18.980;2022-08-19T12:32:24;31.60;54.10
43647;DHT22;56152;49.996;18.980;2022-08-19T12:37:29;31.70;54.20
43647;DHT22;56152;49.996;18.980;2022-08-19T12:42:32;31.70;54.40
43647;DHT22;56152;49.996;18.980;2022-08-19T12:47:38;31.80;54.00
43647;DHT22;56152;49.996;18.980;2022-08-19T12:52:44;31.90;53.50
43647;DHT22;56152;49.996;18.980;2022-08-19T12:58:03;32.00;53.00
43647;DHT22;56152;49.996;18.980;2022-08-19T13:03:05;32.10;53.30
43647;DHT22;56152;49.996;18.980;2022-08-19T13:08:09;32.10;53.20
43647;DHT22;56152;49.996;18.980;2022-08-19T13:13:11;32.10;52.80
43647;DHT22;56152;49.996;18.980;2022-08-19T13:18:16;32.20;52.50
43647;DHT22;56152;49.996;18.980;2022-08-19T13:23:19;32.30;52.50
43647;DHT22;56152;49.996;18.980;2022-08-19T13:28:24;32.20;52.60
43647;DHT22;56152;49.996;18.980;2022-08-19T13:33:26;32.20;52.80
43647;DHT22;56152;49.996;18.980;2022-08-19T13:38:35;32.10;53.10
43647;DHT22;56152;49.996;18.980;2022-08-19T13:44:03;32.00;53.20
43647;DHT22;56152;49.996;18.980;2022-08-19T13:49:07;33.80;55.20
43647;DHT22;56152;49.996;18.980;2022-08-19T13:54:20;31.90;54.20
43647;DHT22;56152;49.996;18.980;2022-08-19T13:59:23;32.00;54.40
43647;DHT22;56152;49.996;18.980;2022-08-19T14:04:25;32.10;54.50
43647;DHT22;56152;49.996;18.980;2022-08-19T14:09:32;32.00;54.60
43647;DHT22;56152;49.996;18.980;2022-08-19T14:14:36;32.10;54.90
43647;DHT22;56152;49.996;18.980;2022-08-19T14:19:38;32.20;54.10
43647;DHT22;56152;49.996;18.980;2022-08-19T14:24:42;32.30;54.40
43647;DHT22;56152;49.996;18.980;2022-08-19T14:29:48;32.30;54.00
43647;DHT22;56152;49.996;18.980;2022-08-19T14:34:50;32.30;53.90
43647;DHT22;56152;49.996;18.980;2022-08-19T14:39:55;32.10;54.20
43647;DHT22;56152;49.996;18.980;2022-08-19T14:44:59;32.20;54.50
43647;DHT22;56152;49.996;18.980;2022-08-19T14:50:02;32.20;55.00
43647;DHT22;56152;49.996;18.980;2022-08-19T14:55:09;32.10;54.90
43647;DHT22;56152;49.996;18.980;2022-08-19T15:00:27;32.00;55.20
43647;DHT22;56152;49.996;18.980;2022-08-19T15:05:29;31.90;55.30
43647;DHT22;56152;49.996;18.980;2022-08-19T15:10:40;31.80;55.50
43647;DHT22;56152;49.996;18.980;2022-08-19T15:15:42;31.60;55.80
43647;DHT22;56152;49.996;18.980;2022-08-19T15:20:55;31.40;56.30
43647;DHT22;56152;49.996;18.980;2022-08-19T15:26:00;31.30;57.00
43647;DHT22;56152;49.996;18.980;2022-08-19T15:31:04;31.00;57.40
43647;DHT22;56152;49.996;18.980;2022-08-19T15:36:07;30.80;57.60
43647;DHT22;56152;49.996;18.980;2022-08-19T15:41:18;30.70;57.90
43647;DHT22;56152;49.996;18.980;2022-08-19T15:46:28;30.60;57.90
43647;DHT22;56152;49.996;18.980;2022-08-19T15:51:32;30.50;57.80
43647;DHT22;56152;49.996;18.980;2022-08-19T15:56:37;30.40;57.70
43647;DHT22;56152;49.996;18.980;2022-08-19T16:01:56;30.30;57.80
43647;DHT22;56152;49.996;18.980;2022-08-19T16:07:16;30.20;57.90
43647;DHT22;56152;49.996;18.980;2022-08-19T16:12:19;30.10;57.90
43647;DHT22;56152;49.996;18.980;2022-08-19T16:17:24;30.10;58.20
43647;DHT22;56152;49.996;18.980;2022-08-19T16:22:28;30.00;58.30
43647;DHT22;56152;49.996;18.980;2022-08-19T16:27:32;29.90;58.50
43647;DHT22;56152;49.996;18.980;2022-08-19T16:32:34;29.80;58.70
43647;DHT22;56152;49.996;18.980;2022-08-19T16:37:37;29.70;59.20
43647;DHT22;56152;49.996;18.980;2022-08-19T16:42:44;29.50;60.20
43647;DHT22;56152;49.996;18.980;2022-08-19T16:47:56;29.40;60.30
43647;DHT22;56152;49.996;18.980;2022-08-19T16:52:58;29.30;60.40
43647;DHT22;56152;49.996;18.980;2022-08-19T16:58:07;29.20;61.50
43647;DHT22;56152;49.996;18.980;2022-08-19T17:03:09;28.20;65.70
43647;DHT22;56152;49.996;18.980;2022-08-19T17:08:13;27.30;68.60
43647;DHT22;56152;49.996;18.980;2022-08-19T17:13:24;26.60;71.30
43647;DHT22;56152;49.996;18.980;2022-08-19T17:18:26;26.00;73.20
43647;DHT22;56152;49.996;18.980;2022-08-19T17:23:43;25.70;74.50
43647;DHT22;56152;49.996;18.980;2022-08-19T17:28:48;25.30;75.70
43647;DHT22;56152;49.996;18.980;2022-08-19T17:33:51;24.80;76.20
43647;DHT22;56152;49.996;18.980;2022-08-19T17:38:55;24.30;77.40
43647;DHT22;56152;49.996;18.980;2022-08-19T17:44:00;24.00;78.80
43647;DHT22;56152;49.996;18.980;2022-08-19T17:49:03;23.70;79.80
43647;DHT22;56152;49.996;18.980;2022-08-19T17:54:09;23.40;81.10
43647;DHT22;56152;49.996;18.980;2022-08-19T17:59:22;23.10;82.20
43647;DHT22;56152;49.996;18.980;2022-08-19T18:04:25;22.80;83.70
43647;DHT22;56152;49.996;18.980;2022-08-19T18:09:32;22.50;84.90
43647;DHT22;56152;49.996;18.980;2022-08-19T18:14:43;22.40;86.70
43647;DHT22;56152;49.996;18.980;2022-08-19T18:19:49;22.20;87.70
43647;DHT22;56152;49.996;18.980;2022-08-19T18:24:53;22.20;88.40
43647;DHT22;56152;49.996;18.980;2022-08-19T18:29:57;22.20;88.70
43647;DHT22;56152;49.996;18.980;2022-08-19T18:35:13;22.30;88.90
43647;DHT22;56152;49.996;18.980;2022-08-19T18:40:19;22.30;88.90
43647;DHT22;56152;49.996;18.980;2022-08-19T18:45:41;22.30;89.10
43647;DHT22;56152;49.996;18.980;2022-08-19T18:51:14;22.20;89.50
43647;DHT22;56152;49.996;18.980;2022-08-19T18:56:18;22.10;89.90
43647;DHT22;56152;49.996;18.980;2022-08-19T19:01:30;22.00;90.20
43647;DHT22;56152;49.996;18.980;2022-08-19T19:06:35;22.00;90.40
43647;DHT22;56152;49.996;18.980;2022-08-19T19:11:42;22.00;90.50
43647;DHT22;56152;49.996;18.980;2022-08-19T19:16:46;22.00;90.70
43647;DHT22;56152;49.996;18.980;2022-08-19T19:21:48;22.00;90.80
43647;DHT22;56152;49.996;18.980;2022-08-19T19:26:52;22.00;90.80
43647;DHT22;56152;49.996;18.980;2022-08-19T19:31:57;22.00;90.90
43647;DHT22;56152;49.996;18.980;2022-08-19T19:36:59;21.90;91.10
43647;DHT22;56152;49.996;18.980;2022-08-19T19:42:06;21.80;91.20
43647;DHT22;56152;49.996;18.980;2022-08-19T19:47:11;21.80;91.30
43647;DHT22;56152;49.996;18.980;2022-08-19T19:52:18;21.80;91.50
43647;DHT22;56152;49.996;18.980;2022-08-19T19:57:22;21.70;91.50
43647;DHT22;56152;49.996;18.980;2022-08-19T20:02:27;21.70;91.60
43647;DHT22;56152;49.996;18.980;2022-08-19T20:07:29;21.60;91.70
43647;DHT22;56152;49.996;18.980;2022-08-19T20:12:48;21.60;91.70
43647;DHT22;56152;49.996;18.980;2022-08-19T20:17:53;21.50;91.90
43647;DHT22;56152;49.996;18.980;2022-08-19T20:22:54;21.50;92.00
43647;DHT22;56152;49.996;18.980;2022-08-19T20:28:01;21.40;92.00
43647;DHT22;56152;49.996;18.980;2022-08-19T20:33:06;21.40;92.20
43647;DHT22;56152;49.996;18.980;2022-08-19T20:38:10;21.40;92.30
43647;DHT22;56152;49.996;18.980;2022-08-19T20:43:19;21.40;92.50
43647;DHT22;56152;49.996;18.980;2022-08-19T20:48:29;21.40;92.50
43647;DHT22;56152;49.996;18.980;2022-08-19T20:53:34;21.40;92.60
43647;DHT22;56152;49.996;18.980;2022-08-19T20:58:38;21.40;92.60
43647;DHT22;56152;49.996;18.980;2022-08-19T21:03:45;21.40;92.70
43647;DHT22;56152;49.996;18.980;2022-08-19T21:08:47;21.40;92.90
43647;DHT22;56152;49.996;18.980;2022-08-19T21:13:49;21.40;93.10
43647;DHT22;56152;49.996;18.980;2022-08-19T21:18:53;21.40;93.30
43647;DHT22;56152;49.996;18.980;2022-08-19T21:24:01;21.40;93.30
43647;DHT22;56152;49.996;18.980;2022-08-19T21:29:06;21.40;93.30
43647;DHT22;56152;49.996;18.980;2022-08-19T21:34:12;21.40;93.30
43647;DHT22;56152;49.996;18.980;2022-08-19T21:39:14;21.40;93.40
43647;DHT22;56152;49.996;18.980;2022-08-19T21:44:16;21.40;93.40
43647;DHT22;56152;49.996;18.980;2022-08-19T21:49:20;21.40;93.40
43647;DHT22;56152;49.996;18.980;2022-08-19T21:54:22;21.30;93.50
43647;DHT22;56152;49.996;18.980;2022-08-19T21:59:24;21.30;93.50
43647;DHT22;56152;49.996;18.980;2022-08-19T22:04:29;21.40;93.50
43647;DHT22;56152;49.996;18.980;2022-08-19T22:09:31;21.30;93.60
43647;DHT22;56152;49.996;18.980;2022-08-19T22:14:33;21.40;93.60
43647;DHT22;56152;49.996;18.980;2022-08-19T22:19:38;21.30;94.00
43647;DHT22;56152;49.996;18.980;2022-08-19T22:24:40;21.40;93.80
43647;DHT22;56152;49.996;18.980;2022-08-19T22:29:46;21.30;93.80
43647;DHT22;56152;49.996;18.980;2022-08-19T22:34:49;21.30;93.90
43647;DHT22;56152;49.996;18.980;2022-08-19T22:39:52;21.30;94.00
43647;DHT22;56152;49.996;18.980;2022-08-19T22:44:56;21.30;94.00
43647;DHT22;56152;49.996;18.980;2022-08-19T22:49:59;21.30;93.90
43647;DHT22;56152;49.996;18.980;2022-08-19T22:55:03;21.30;94.00
43647;DHT22;56152;49.996;18.980;2022-08-19T23:00:07;21.20;94.10
43647;DHT22;56152;49.996;18.980;2022-08-19T23:05:13;21.10;94.20
43647;DHT22;56152;49.996;18.980;2022-08-19T23:10:15;21.00;94.20
43647;DHT22;56152;49.996;18.980;2022-08-19T23:15:19;21.00;94.30
43647;DHT22;56152;49.996;18.980;2022-08-19T23:20:29;20.90;94.20
43647;DHT22;56152;49.996;18.980;2022-08-19T23:25:33;21.00;94.20
43647;DHT22;56152;49.996;18.980;2022-08-19T23:30:39;21.00;94.10
43647;DHT22;56152;49.996;18.980;2022-08-19T23:35:44;21.00;94.10
43647;DHT22;56152;49.996;18.980;2022-08-19T23:40:46;21.10;94.10
43647;DHT22;56152;49.996;18.980;2022-08-19T23:45:49;21.00;94.10
43647;DHT22;56152;49.996;18.980;2022-08-19T23:50:56;21.00;94.20
43647;DHT22;56152;49.996;18.980;2022-08-19T23:55:58;20.90;94.20
